createdAt,value
2023-04-27T00:01:43.018Z,3.10
2023-04-27T00:04:09.787Z,3.00
2023-04-27T00:06:36.396Z,3.33
2023-04-27T00:09:03.674Z,3.70
2023-04-27T00:11:30.142Z,3.90
2023-04-27T00:13:56.626Z,3.70
2023-04-27T00:16:23.110Z,3.87
2023-04-27T00:18:49.562Z,3.70
2023-04-27T00:21:16.137Z,4.30
2023-04-27T00:23:42.614Z,4.00
2023-04-27T00:26:09.083Z,4.27
2023-04-27T00:28:35.812Z,3.60
2023-04-27T00:31:03.652Z,3.77
2023-04-27T00:33:30.433Z,3.80
2023-04-27T00:36:02.980Z,3.57
2023-04-27T00:38:29.793Z,3.67
2023-04-27T00:41:06.504Z,4.03
2023-04-27T00:43:41.129Z,4.00
2023-04-27T00:46:08.191Z,4.20
2023-04-27T00:48:35.559Z,4.10
2023-04-27T00:51:02.197Z,3.70
2023-04-27T00:53:29.041Z,3.60
2023-04-27T00:55:57.848Z,4.00
2023-04-27T00:58:24.786Z,3.70
2023-04-27T01:00:52.135Z,3.67
2023-04-27T01:03:18.783Z,3.93
2023-04-27T01:05:45.534Z,3.77
2023-04-27T01:08:12.007Z,3.83
2023-04-27T01:10:39.104Z,3.67
2023-04-27T01:13:05.597Z,3.57
2023-04-27T01:15:32.044Z,3.90
2023-04-27T01:18:02.704Z,3.80
2023-04-27T01:20:30.307Z,3.90
2023-04-27T01:22:58.454Z,4.33
2023-04-27T01:25:25.254Z,4.80
2023-04-27T01:27:51.849Z,4.03
2023-04-27T01:30:18.528Z,4.30
2023-04-27T01:32:45.013Z,4.33
2023-04-27T01:35:11.721Z,3.50
2023-04-27T01:37:38.260Z,3.80
2023-04-27T01:40:06.635Z,3.47
2023-04-27T01:42:33.207Z,2.90
2023-04-27T01:45:00.646Z,3.40
2023-04-27T01:47:27.917Z,3.70
2023-04-27T01:49:54.465Z,3.27
2023-04-27T01:52:20.971Z,3.20
2023-04-27T01:54:47.432Z,3.40
2023-04-27T01:57:14.357Z,3.77
2023-04-27T01:59:40.837Z,3.40
2023-04-27T02:02:07.433Z,3.17
2023-04-27T02:04:36.877Z,3.43
2023-04-27T02:07:03.481Z,3.40
2023-04-27T02:09:29.995Z,2.90
2023-04-27T02:11:56.451Z,3.07
2023-04-27T02:14:22.918Z,3.23
2023-04-27T02:16:49.493Z,3.20
2023-04-27T02:19:16.417Z,3.10
2023-04-27T02:21:43.639Z,2.63
2023-04-27T02:24:11.088Z,2.93
2023-04-27T02:26:37.826Z,2.97
2023-04-27T02:29:04.309Z,3.50
2023-04-27T02:31:31.295Z,3.30
2023-04-27T02:33:57.827Z,3.07
2023-04-27T02:36:25.074Z,3.80
2023-04-27T02:38:54.558Z,3.17
2023-04-27T02:41:21.078Z,3.53
2023-04-27T02:43:51.509Z,3.00
2023-04-27T02:46:18.008Z,3.57
2023-04-27T02:48:44.533Z,3.23
2023-04-27T02:51:10.980Z,3.30
2023-04-27T02:53:37.428Z,3.37
2023-04-27T02:56:04.148Z,3.00
2023-04-27T02:58:30.859Z,3.40
2023-04-27T03:00:57.609Z,3.03
2023-04-27T03:03:24.501Z,3.33
2023-04-27T03:05:51.121Z,3.00
2023-04-27T03:08:17.599Z,2.80
2023-04-27T03:10:44.132Z,2.90
2023-04-27T03:13:10.907Z,3.23
2023-04-27T03:15:37.332Z,4.20
2023-04-27T03:18:04.317Z,3.53
2023-04-27T03:20:30.917Z,3.63
2023-04-27T03:22:57.394Z,3.73
2023-04-27T03:25:24.168Z,3.57
2023-04-27T03:27:50.854Z,3.73
2023-04-27T03:30:17.349Z,4.20
2023-04-27T03:32:45.492Z,3.73
2023-04-27T03:35:13.652Z,4.23
2023-04-27T03:37:40.418Z,4.30
2023-04-27T03:40:07.554Z,4.10
2023-04-27T03:42:34.105Z,4.30
2023-04-27T03:45:01.476Z,4.30
2023-04-27T03:47:27.917Z,3.93
2023-04-27T03:49:54.477Z,3.60
2023-04-27T03:52:20.954Z,3.33
2023-04-27T03:54:47.738Z,3.93
2023-04-27T03:57:14.290Z,3.47
2023-04-27T03:59:40.812Z,3.43
2023-04-27T04:02:08.641Z,3.27
2023-04-27T04:04:36.647Z,3.50
2023-04-27T04:07:03.324Z,3.87
2023-04-27T04:09:29.839Z,4.10
2023-04-27T04:11:56.450Z,4.07
2023-04-27T04:14:24.277Z,3.60
2023-04-27T04:16:51.570Z,4.13
2023-04-27T04:19:21.942Z,3.70
2023-04-27T04:21:48.662Z,3.60
2023-04-27T04:24:16.316Z,3.90
2023-04-27T04:26:43.046Z,3.80
2023-04-27T04:29:10.964Z,3.77
2023-04-27T04:31:38.182Z,4.07
2023-04-27T04:34:04.889Z,4.10
2023-04-27T04:36:32.020Z,3.93
2023-04-27T04:38:58.634Z,3.83
2023-04-27T04:41:26.234Z,4.20
2023-04-27T04:43:52.783Z,4.33
2023-04-27T04:46:19.987Z,4.73
2023-04-27T04:48:46.970Z,3.40
2023-04-27T04:51:13.801Z,4.20
2023-04-27T04:53:40.247Z,4.00
2023-04-27T04:56:11.281Z,4.87
2023-04-27T04:58:38.164Z,4.70
2023-04-27T05:01:05.444Z,4.50
2023-04-27T05:03:32.683Z,4.90
2023-04-27T05:05:59.278Z,4.80
2023-04-27T05:08:25.827Z,4.27
2023-04-27T05:10:53.476Z,4.57
2023-04-27T05:13:20.924Z,4.23
2023-04-27T05:15:47.614Z,4.40
2023-04-27T05:18:14.172Z,4.60
2023-04-27T05:20:40.806Z,4.30
2023-04-27T05:23:07.490Z,3.90
2023-04-27T05:25:34.977Z,3.77
2023-04-27T05:28:01.470Z,3.63
2023-04-27T05:30:27.976Z,3.80
2023-04-27T05:32:54.765Z,3.73
2023-04-27T05:35:21.398Z,3.53
2023-04-27T05:37:47.832Z,3.40
2023-04-27T05:40:15.698Z,3.50
2023-04-27T05:42:42.230Z,3.80
2023-04-27T05:45:09.084Z,3.73
2023-04-27T05:47:35.577Z,3.53
2023-04-27T05:50:02.107Z,3.80
2023-04-27T05:52:30.970Z,4.03
2023-04-27T05:54:58.647Z,5.60
2023-04-27T05:57:25.783Z,5.20
2023-04-27T05:59:53.173Z,5.70
2023-04-27T06:02:20.169Z,5.10
2023-04-27T06:04:46.779Z,4.53
2023-04-27T06:07:16.369Z,4.60
2023-04-27T06:09:42.951Z,4.80
2023-04-27T06:12:09.576Z,4.80
2023-04-27T06:14:37.247Z,5.00
2023-04-27T06:17:04.280Z,4.60
2023-04-27T06:19:31.501Z,5.03
2023-04-27T06:21:57.931Z,4.83
2023-04-27T06:24:24.483Z,5.43
2023-04-27T06:26:51.046Z,5.10
2023-04-27T06:29:17.735Z,5.60
2023-04-27T06:31:44.396Z,5.53
2023-04-27T06:34:11.040Z,5.67
2023-04-27T06:36:37.461Z,5.07
2023-04-27T06:39:03.945Z,4.23
2023-04-27T06:41:30.390Z,3.80
2023-04-27T06:43:58.571Z,3.77
2023-04-27T06:46:26.053Z,3.87
2023-04-27T06:48:53.137Z,3.33
2023-04-27T06:51:19.584Z,3.43
2023-04-27T06:53:46.102Z,3.50
2023-04-27T06:56:12.595Z,3.40
2023-04-27T06:58:39.061Z,3.50
2023-04-27T07:01:05.602Z,3.20
2023-04-27T07:03:35.346Z,3.33
2023-04-27T07:06:02.006Z,3.83
2023-04-27T07:08:28.491Z,4.03
2023-04-27T07:10:56.107Z,3.67
2023-04-27T07:13:22.607Z,4.83
2023-04-27T07:15:54.832Z,3.17
2023-04-27T07:18:21.350Z,3.77
2023-04-27T07:20:47.883Z,3.30
2023-04-27T07:23:14.603Z,3.60
2023-04-27T07:25:41.127Z,3.53
2023-04-27T07:28:07.596Z,3.00
2023-04-27T07:30:36.433Z,3.50
2023-04-27T07:33:03.215Z,3.10
2023-04-27T07:35:29.775Z,3.07
2023-04-27T07:37:56.667Z,2.97
2023-04-27T07:40:24.213Z,3.40
2023-04-27T07:42:51.148Z,2.87
2023-04-27T07:45:18.022Z,3.00
2023-04-27T07:47:44.775Z,2.50
2023-04-27T07:50:11.336Z,2.60
2023-04-27T07:52:37.783Z,2.53
2023-04-27T07:55:04.710Z,2.50
2023-04-27T07:57:31.499Z,2.20
2023-04-27T07:59:58.149Z,2.30
2023-04-27T08:02:30.470Z,2.60
2023-04-27T08:04:57.465Z,2.50
2023-04-27T08:07:24.265Z,2.50
2023-04-27T08:09:52.276Z,2.47
2023-04-27T08:12:19.400Z,2.33
2023-04-27T08:14:46.677Z,2.40
2023-04-27T08:17:13.260Z,2.63
2023-04-27T08:19:41.096Z,2.80
2023-04-27T08:22:08.359Z,2.70
2023-04-27T08:24:34.834Z,2.67
2023-04-27T08:27:01.289Z,2.53
2023-04-27T08:29:29.134Z,2.77
2023-04-27T08:32:00.053Z,3.03
2023-04-27T08:34:27.318Z,2.77
2023-04-27T08:36:54.190Z,2.63
2023-04-27T08:39:21.413Z,2.57
2023-04-27T08:41:47.859Z,2.57
2023-04-27T08:44:14.340Z,3.20
2023-04-27T08:46:41.062Z,3.27
2023-04-27T08:49:07.897Z,3.10
2023-04-27T08:51:34.640Z,2.90
2023-04-27T08:54:01.413Z,2.90
2023-04-27T08:56:29.502Z,2.67
2023-04-27T08:58:57.192Z,3.07
2023-04-27T09:01:25.244Z,3.00
2023-04-27T09:04:00.299Z,2.90
2023-04-27T09:06:32.463Z,2.93
2023-04-27T09:08:59.652Z,3.23
2023-04-27T09:11:31.642Z,3.40
2023-04-27T09:13:59.975Z,3.40
2023-04-27T09:16:29.063Z,3.43
2023-04-27T09:18:57.180Z,3.57
2023-04-27T09:21:25.430Z,3.03
2023-04-27T09:23:52.510Z,3.60
2023-04-27T09:26:23.988Z,3.00
2023-04-27T09:28:53.112Z,3.37
2023-04-27T09:31:20.755Z,3.20
2023-04-27T09:33:55.894Z,3.03
2023-04-27T09:36:23.141Z,2.83
2023-04-27T09:38:51.443Z,3.07
2023-04-27T09:41:18.254Z,3.73
2023-04-27T09:43:48.098Z,2.90
2023-04-27T09:46:15.190Z,2.30
2023-04-27T09:48:42.633Z,2.50
2023-04-27T09:51:09.371Z,2.67
2023-04-27T09:53:49.518Z,2.87
2023-04-27T09:56:42.308Z,2.50
2023-04-27T09:59:26.856Z,2.50
2023-04-27T10:02:02.770Z,2.57
2023-04-27T10:04:50.478Z,2.20
2023-04-27T10:07:17.897Z,2.90
2023-04-27T10:09:51.650Z,2.50
2023-04-27T10:12:22.626Z,2.63
2023-04-27T10:14:51.278Z,2.70
2023-04-27T10:17:18.442Z,3.30
2023-04-27T10:19:58.004Z,2.30
2023-04-27T10:22:38.101Z,3.00
2023-04-27T10:25:16.628Z,3.00
2023-04-27T10:27:43.256Z,2.93
2023-04-27T10:30:11.810Z,2.37
2023-04-27T10:32:38.415Z,2.90
2023-04-27T10:35:07.477Z,3.00
2023-04-27T10:37:42.026Z,2.90
2023-04-27T10:40:19.443Z,2.77
2023-04-27T10:42:49.389Z,2.50
2023-04-27T10:45:30.278Z,2.53
2023-04-27T10:48:00.577Z,2.30
2023-04-27T10:50:27.795Z,2.60
2023-04-27T10:52:54.340Z,2.03
2023-04-27T10:55:22.804Z,2.27
2023-04-27T10:57:51.690Z,2.03
2023-04-27T11:00:44.491Z,2.20
2023-04-27T11:03:20.996Z,2.20
2023-04-27T11:05:58.516Z,2.40
2023-04-27T11:08:25.348Z,2.23
2023-04-27T11:10:52.323Z,2.53
2023-04-27T11:13:24.291Z,2.10
2023-04-27T11:15:56.339Z,1.83
2023-04-27T11:18:25.352Z,2.10
2023-04-27T11:20:54.723Z,2.23
2023-04-27T11:23:28.886Z,1.83
2023-04-27T11:25:56.676Z,1.90
2023-04-27T11:28:24.271Z,1.97
2023-04-27T11:30:58.327Z,1.70
2023-04-27T11:33:25.234Z,2.00
2023-04-27T11:35:52.180Z,2.10
2023-04-27T11:38:19.431Z,2.23
2023-04-27T11:40:47.632Z,2.07
2023-04-27T11:43:15.133Z,2.17
2023-04-27T11:45:44.996Z,2.17
2023-04-27T11:48:15.687Z,1.90
2023-04-27T11:50:53.270Z,1.70
2023-04-27T11:53:33.042Z,2.00
2023-04-27T11:56:10.968Z,1.83
2023-04-27T11:58:39.433Z,2.07
2023-04-27T12:01:06.950Z,2.00
2023-04-27T12:03:35.290Z,1.80
2023-04-27T12:08:31.642Z,1.93
2023-04-27T12:10:58.190Z,1.80
2023-04-27T12:13:24.654Z,1.93
2023-04-27T12:15:51.378Z,1.80
2023-04-27T12:18:17.885Z,1.87
2023-04-27T12:20:44.351Z,1.70
2023-04-27T12:23:10.779Z,1.67
2023-04-27T12:25:37.559Z,1.67
2023-04-27T12:28:04.277Z,2.10
2023-04-27T12:30:30.904Z,1.90
2023-04-27T12:32:59.492Z,1.80
2023-04-27T12:35:26.339Z,1.93
2023-04-27T12:37:52.880Z,1.73
2023-04-27T12:40:19.460Z,1.73
2023-04-27T12:42:45.942Z,1.80
2023-04-27T12:45:12.422Z,1.83
2023-04-27T12:47:58.339Z,1.80
2023-04-27T12:50:26.784Z,1.83
2023-04-27T12:52:53.498Z,2.43
2023-04-27T12:55:32.205Z,2.07
2023-04-27T12:58:01.028Z,1.60
2023-04-27T13:00:27.690Z,2.10
2023-04-27T13:02:54.405Z,1.43
2023-04-27T13:05:22.087Z,1.50
2023-04-27T13:07:48.898Z,1.70
2023-04-27T13:10:15.455Z,1.83
2023-04-27T13:12:42.099Z,1.93
2023-04-27T13:15:09.426Z,1.70
2023-04-27T13:17:37.592Z,2.10
2023-04-27T13:20:04.463Z,2.13
2023-04-27T13:22:30.920Z,1.33
2023-04-27T13:24:57.976Z,1.50
2023-04-27T13:27:28.259Z,1.17
2023-04-27T13:29:54.890Z,1.30
2023-04-27T13:32:22.148Z,1.63
2023-04-27T13:34:49.211Z,1.40
2023-04-27T13:37:16.445Z,1.67
2023-04-27T13:39:42.990Z,1.40
2023-04-27T13:42:09.463Z,1.43
2023-04-27T13:44:35.890Z,1.80
2023-04-27T13:47:02.374Z,1.47
2023-04-27T13:49:28.846Z,2.00
2023-04-27T13:51:55.330Z,2.03
2023-04-27T13:54:21.899Z,1.67
2023-04-27T13:56:48.434Z,1.73
2023-04-27T13:59:16.409Z,1.63
2023-04-27T14:01:43.260Z,1.83
2023-04-27T14:04:10.111Z,2.40
2023-04-27T14:06:36.758Z,2.50
2023-04-27T14:09:03.947Z,1.60
2023-04-27T14:11:30.527Z,2.10
2023-04-27T14:13:57.853Z,1.80
2023-04-27T14:16:24.589Z,2.20
2023-04-27T14:18:52.221Z,2.03
2023-04-27T14:21:18.918Z,2.10
2023-04-27T14:23:45.451Z,2.27
2023-04-27T14:26:12.139Z,2.30
2023-04-27T14:28:38.709Z,1.97
2023-04-27T14:31:05.218Z,1.80
2023-04-27T14:33:31.695Z,2.03
2023-04-27T14:35:58.276Z,2.00
2023-04-27T14:38:24.774Z,1.97
2023-04-27T14:40:51.270Z,1.40
2023-04-27T14:43:18.001Z,2.07
2023-04-27T14:45:51.562Z,1.57
2023-04-27T14:48:19.112Z,1.40
2023-04-27T14:50:45.896Z,1.67
2023-04-27T14:53:12.516Z,1.60
2023-04-27T14:55:41.018Z,1.40
2023-04-27T14:58:07.515Z,1.80
2023-04-27T15:00:33.989Z,2.00
2023-04-27T15:03:00.515Z,1.70
2023-04-27T15:05:27.012Z,1.50
2023-04-27T15:07:53.477Z,1.93
2023-04-27T15:10:19.923Z,1.60
2023-04-27T15:12:46.666Z,1.50
2023-04-27T15:15:13.452Z,1.37
2023-04-27T15:17:39.977Z,2.33
2023-04-27T15:20:07.970Z,2.50
2023-04-27T15:22:34.496Z,2.20
2023-04-27T15:25:00.978Z,2.63
2023-04-27T15:27:27.566Z,2.30
2023-04-27T15:29:54.575Z,2.60
2023-04-27T15:32:23.273Z,2.67
2023-04-27T15:34:49.870Z,2.23
2023-04-27T15:37:16.410Z,2.60
2023-04-27T15:39:43.036Z,3.00
2023-04-27T15:42:09.517Z,2.20
2023-04-27T15:44:36.515Z,2.40
2023-04-27T15:47:03.304Z,2.67
2023-04-27T15:49:30.386Z,1.83
2023-04-27T15:51:56.890Z,2.90
2023-04-27T15:54:23.510Z,2.23
2023-04-27T15:56:49.978Z,2.33
2023-04-27T15:59:16.632Z,2.20
2023-04-27T16:01:43.351Z,2.27
2023-04-27T16:04:10.022Z,4.10
2023-04-27T16:06:36.839Z,2.20
2023-04-27T16:09:03.569Z,2.13
2023-04-27T16:11:31.292Z,1.97
2023-04-27T16:13:58.264Z,2.50
2023-04-27T16:16:25.011Z,1.90
2023-04-27T16:18:51.569Z,2.10
2023-04-27T16:21:18.164Z,2.27
2023-04-27T16:23:44.753Z,2.00
2023-04-27T16:26:11.422Z,2.00
2023-04-27T16:28:38.090Z,1.80
2023-04-27T16:31:04.687Z,2.17
2023-04-27T16:33:31.327Z,2.10
2023-04-27T16:35:57.952Z,1.97
2023-04-27T16:38:24.446Z,1.90
2023-04-27T16:40:52.589Z,2.57
2023-04-27T16:43:19.248Z,1.80
2023-04-27T16:45:45.835Z,2.70
2023-04-27T16:48:12.579Z,2.10
2023-04-27T16:50:39.270Z,2.40
2023-04-27T16:53:06.949Z,2.03
2023-04-27T16:55:34.466Z,2.00
2023-04-27T16:58:01.096Z,2.30
2023-04-27T17:00:28.434Z,2.03
2023-04-27T17:02:55.465Z,2.50
2023-04-27T17:05:22.127Z,2.30
2023-04-27T17:07:48.708Z,2.00
2023-04-27T17:10:16.791Z,2.20
2023-04-27T17:12:43.345Z,2.87
2023-04-27T17:15:11.957Z,2.53
2023-04-27T17:17:38.713Z,1.90
2023-04-27T17:20:07.089Z,1.80
2023-04-27T17:22:33.606Z,1.87
2023-04-27T17:25:00.130Z,1.87
2023-04-27T17:27:26.656Z,2.27
2023-04-27T17:29:54.727Z,2.00
2023-04-27T17:32:21.319Z,1.83
2023-04-27T17:34:47.850Z,1.90
2023-04-27T17:37:14.884Z,2.23
2023-04-27T17:39:41.451Z,1.80
2023-04-27T17:42:12.150Z,2.10
2023-04-27T17:44:41.026Z,2.50
2023-04-27T17:47:07.795Z,2.10
2023-04-27T17:49:34.307Z,2.43
2023-04-27T17:52:00.900Z,1.90
2023-04-27T17:54:29.832Z,2.53
2023-04-27T17:56:56.857Z,2.40
2023-04-27T17:59:24.619Z,2.50
2023-04-27T18:01:51.188Z,3.20
2023-04-27T18:04:17.795Z,3.20
2023-04-27T18:06:44.352Z,2.73
2023-04-27T18:09:11.966Z,2.47
2023-04-27T18:11:38.582Z,2.70
2023-04-27T18:14:05.036Z,2.30
2023-04-27T18:16:31.608Z,2.23
2023-04-27T18:18:58.073Z,2.70
2023-04-27T18:21:26.638Z,2.63
2023-04-27T18:23:53.227Z,2.50
2023-04-27T18:26:19.917Z,3.00
2023-04-27T18:28:46.421Z,2.70
2023-04-27T18:31:14.275Z,2.60
2023-04-27T18:33:40.985Z,2.90
2023-04-27T18:36:08.202Z,3.27
2023-04-27T18:38:34.668Z,2.87
2023-04-27T18:41:01.294Z,3.27
2023-04-27T18:43:27.749Z,3.17
2023-04-27T18:45:54.286Z,2.90
2023-04-27T18:48:20.847Z,3.00
2023-04-27T18:50:49.196Z,3.10
2023-04-27T18:53:16.045Z,3.20
2023-04-27T18:55:42.493Z,3.37
2023-04-27T18:58:08.957Z,3.50
2023-04-27T19:00:38.098Z,4.30
2023-04-27T19:03:05.693Z,5.20
2023-04-27T19:05:32.487Z,4.40
2023-04-27T19:07:59.086Z,4.40
2023-04-27T19:10:25.522Z,3.70
2023-04-27T19:12:52.040Z,4.33
2023-04-27T19:15:18.729Z,3.97
2023-04-27T19:17:47.182Z,3.90
2023-04-27T19:20:15.356Z,3.77
2023-04-27T19:22:41.893Z,3.70
2023-04-27T19:25:09.468Z,4.27
2023-04-27T19:27:36.097Z,4.27
2023-04-27T19:30:04.144Z,4.63
2023-04-27T19:32:30.819Z,5.33
2023-04-27T19:34:58.392Z,5.40
2023-04-27T19:37:25.152Z,4.83
2023-04-27T19:39:51.666Z,4.83
2023-04-27T19:42:18.316Z,5.03
2023-04-27T19:44:44.879Z,5.50
2023-04-27T19:47:11.497Z,3.90
2023-04-27T19:49:38.496Z,3.70
2023-04-27T19:52:05.492Z,4.00
2023-04-27T19:54:31.961Z,3.47
2023-04-27T19:56:58.686Z,4.10
2023-04-27T19:59:26.003Z,3.77
2023-04-27T20:01:52.525Z,3.57
2023-04-27T20:04:20.786Z,3.50
2023-04-27T20:06:47.692Z,3.60
2023-04-27T20:09:14.149Z,4.07
2023-04-27T20:11:40.759Z,3.97
2023-04-27T20:14:07.238Z,3.77
2023-04-27T20:16:33.764Z,3.37
2023-04-27T20:19:03.188Z,3.77
2023-04-27T20:21:29.704Z,3.33
2023-04-27T20:23:56.257Z,3.47
2023-04-27T20:26:26.474Z,3.43
2023-04-27T20:28:53.316Z,2.83
2023-04-27T20:31:20.471Z,2.80
2023-04-27T20:33:47.114Z,3.67
2023-04-27T20:36:17.777Z,3.47
2023-04-27T20:38:45.999Z,3.77
2023-04-27T20:41:13.671Z,3.33
2023-04-27T20:43:41.194Z,3.60
2023-04-27T20:46:08.084Z,3.33
2023-04-27T20:48:34.750Z,2.90
2023-04-27T20:51:03.191Z,3.23
2023-04-27T20:53:30.287Z,3.33
2023-04-27T20:55:57.238Z,3.70
2023-04-27T20:58:24.007Z,3.13
2023-04-27T21:00:50.810Z,3.47
2023-04-27T21:03:17.600Z,3.07
2023-04-27T21:05:44.328Z,3.37
2023-04-27T21:08:10.856Z,3.50
2023-04-27T21:10:37.483Z,3.60
2023-04-27T21:13:04.138Z,3.07
2023-04-27T21:15:33.449Z,3.37
2023-04-27T21:18:00.750Z,3.50
2023-04-27T21:20:27.473Z,3.80
2023-04-27T21:22:54.120Z,3.60
2023-04-27T21:25:22.985Z,3.23
2023-04-27T21:27:50.692Z,3.13
2023-04-27T21:30:17.277Z,3.27
2023-04-27T21:32:44.360Z,3.40
2023-04-27T21:35:11.087Z,3.10
2023-04-27T21:37:37.597Z,3.57
2023-04-27T21:40:04.797Z,3.70
2023-04-27T21:42:31.922Z,2.93
2023-04-27T21:44:58.356Z,4.17
2023-04-27T21:47:24.901Z,3.77
2023-04-27T21:49:52.602Z,4.00
2023-04-27T21:52:21.317Z,4.20
2023-04-27T21:54:47.957Z,4.30
2023-04-27T21:57:14.445Z,4.73
2023-04-27T21:59:41.179Z,4.87
2023-04-27T22:02:07.981Z,4.50
2023-04-27T22:04:36.039Z,4.33
2023-04-27T22:07:02.727Z,4.67
2023-04-27T22:09:29.185Z,5.13
2023-04-27T22:11:55.740Z,4.63
2023-04-27T22:14:22.267Z,4.83
2023-04-27T22:16:49.540Z,4.33
2023-04-27T22:19:17.854Z,3.67
2023-04-27T22:21:44.821Z,4.17
2023-04-27T22:24:11.338Z,4.17
2023-04-27T22:26:37.835Z,4.23
2023-04-27T22:29:04.326Z,4.40
2023-04-27T22:31:32.492Z,4.30
2023-04-27T22:33:59.060Z,4.10
2023-04-27T22:36:25.839Z,4.30
2023-04-27T22:38:52.342Z,3.90
2023-04-27T22:41:19.227Z,3.80
2023-04-27T22:43:45.814Z,3.40
2023-04-27T22:46:12.312Z,3.10
2023-04-27T22:48:38.763Z,3.23
2023-04-27T22:51:09.758Z,3.17
2023-04-27T22:53:36.661Z,3.07
2023-04-27T22:56:03.342Z,3.20
2023-04-27T22:58:29.878Z,3.20
2023-04-27T23:00:56.490Z,3.40
2023-04-27T23:03:23.072Z,4.03
2023-04-27T23:05:49.735Z,3.57
2023-04-27T23:08:16.960Z,4.00
2023-04-27T23:10:43.497Z,4.23
2023-04-27T23:13:11.300Z,4.03
2023-04-27T23:15:39.537Z,3.60
2023-04-27T23:18:06.255Z,4.10
2023-04-27T23:20:32.895Z,4.77
2023-04-27T23:22:59.326Z,4.57
2023-04-27T23:25:25.820Z,4.90
2023-04-27T23:27:53.065Z,3.90
2023-04-27T23:30:21.263Z,3.80
2023-04-27T23:32:47.797Z,4.17
2023-04-27T23:35:14.242Z,4.50
2023-04-27T23:37:40.689Z,4.67
2023-04-27T23:40:08.309Z,4.50
2023-04-27T23:42:35.114Z,4.80
2023-04-27T23:45:02.286Z,4.87
2023-04-27T23:47:29.316Z,4.63
2023-04-27T23:49:55.783Z,4.50
2023-04-27T23:52:22.235Z,4.63
2023-04-27T23:54:48.676Z,4.73
2023-04-27T23:57:15.358Z,4.90
2023-04-27T23:59:41.793Z,4.90
